createdAt,value
2022-09-23T00:01:36.236Z,2.80
2022-09-23T00:04:05.109Z,3.10
2022-09-23T00:06:34.005Z,2.70
2022-09-23T00:09:02.880Z,2.70
2022-09-23T00:11:31.786Z,3.00
2022-09-23T00:14:01.295Z,2.90
2022-09-23T00:16:34.533Z,2.80
2022-09-23T00:19:05.075Z,2.80
2022-09-23T00:21:33.925Z,2.80
2022-09-23T00:24:02.818Z,2.70
2022-09-23T00:26:31.701Z,2.70
2022-09-23T00:29:00.493Z,3.10
2022-09-23T00:31:29.415Z,2.90
2022-09-23T00:34:01.891Z,2.80
2022-09-23T00:36:32.800Z,3.00
2022-09-23T00:39:03.330Z,2.90
2022-09-23T00:41:35.507Z,3.00
2022-09-23T00:44:42.453Z,2.80
2022-09-23T00:47:25.002Z,2.70
2022-09-23T00:50:06.435Z,2.30
2022-09-23T00:52:36.563Z,2.90
2022-09-23T00:55:17.095Z,3.00
2022-09-23T00:57:48.073Z,3.10
2022-09-23T01:00:17.075Z,2.60
2022-09-23T01:02:47.055Z,3.30
2022-09-23T01:05:17.548Z,3.30
2022-09-23T01:07:47.243Z,2.90
2022-09-23T01:10:18.913Z,3.00
2022-09-23T01:13:07.741Z,3.10
2022-09-23T01:15:46.574Z,3.10
2022-09-23T01:18:15.322Z,3.00
2022-09-23T01:20:59.629Z,3.80
2022-09-23T01:26:31.108Z,3.10
2022-09-23T01:29:24.684Z,3.30
2022-09-23T01:32:03.497Z,3.30
2022-09-23T01:34:42.457Z,3.30
2022-09-23T01:37:25.476Z,3.30
2022-09-23T01:40:11.501Z,3.20
2022-09-23T01:42:53.234Z,3.30
2022-09-23T01:45:36.003Z,3.40
2022-09-23T01:48:18.895Z,3.30
2022-09-23T01:51:17.258Z,3.20
2022-09-23T01:53:52.765Z,3.20
2022-09-23T01:56:44.246Z,3.20
2022-09-23T01:59:35.836Z,2.70
2022-09-23T02:02:10.359Z,3.20
2022-09-23T02:05:12.857Z,3.30
2022-09-23T02:07:58.607Z,3.20
2022-09-23T02:10:41.456Z,3.00
2022-09-23T02:13:18.489Z,3.10
2022-09-23T02:15:53.566Z,3.40
2022-09-23T02:18:30.645Z,3.50
2022-09-23T02:21:04.107Z,3.30
2022-09-23T02:23:42.819Z,3.70
2022-09-23T02:26:56.757Z,3.70
2022-09-23T02:29:34.446Z,4.10
2022-09-23T02:32:20.258Z,4.00
2022-09-23T02:34:59.697Z,5.00
2022-09-23T02:37:43.876Z,5.20
2022-09-23T02:40:25.534Z,5.20
2022-09-23T02:43:20.259Z,5.90
2022-09-23T02:45:50.224Z,5.60
2022-09-23T02:48:33.122Z,5.60
2022-09-23T02:51:04.048Z,5.20
2022-09-23T02:53:36.980Z,5.10
2022-09-23T02:56:35.248Z,4.80
2022-09-23T02:59:04.790Z,4.20
2022-09-23T03:01:39.622Z,4.10
2022-09-23T03:04:58.833Z,4.10
2022-09-23T03:07:54.369Z,3.90
2022-09-23T03:10:31.383Z,3.90
2022-09-23T03:13:20.168Z,3.90
2022-09-23T03:16:11.732Z,3.60
2022-09-23T03:18:52.803Z,3.50
2022-09-23T03:21:28.976Z,3.80
2022-09-23T03:24:01.830Z,3.80
2022-09-23T03:26:37.827Z,4.00
2022-09-23T03:29:11.628Z,4.10
2022-09-23T03:31:42.770Z,4.40
2022-09-23T03:34:21.200Z,3.80
2022-09-23T03:37:06.466Z,4.00
2022-09-23T03:40:03.842Z,4.50
2022-09-23T03:42:35.293Z,4.50
2022-09-23T03:45:09.801Z,4.00
2022-09-23T03:47:39.868Z,5.40
2022-09-23T03:50:09.295Z,4.90
2022-09-23T03:52:40.153Z,4.50
2022-09-23T03:55:09.997Z,4.70
2022-09-23T03:57:39.038Z,4.50
2022-09-23T04:00:10.010Z,4.80
2022-09-23T04:02:42.196Z,4.60
2022-09-23T04:05:13.146Z,4.10
2022-09-23T04:07:42.916Z,4.50
2022-09-23T04:10:12.065Z,4.20
2022-09-23T04:12:40.982Z,5.10
2022-09-23T04:15:10.488Z,4.40
2022-09-23T04:17:39.215Z,4.10
2022-09-23T04:20:08.348Z,4.10
2022-09-23T04:22:39.006Z,4.20
2022-09-23T04:25:08.794Z,4.70
2022-09-23T04:27:38.039Z,4.00
2022-09-23T04:30:07.955Z,4.00
2022-09-23T04:32:38.274Z,4.90
2022-09-23T04:35:08.313Z,6.80
2022-09-23T04:37:37.436Z,6.50
2022-09-23T04:40:07.074Z,6.30
2022-09-23T04:42:35.978Z,5.30
2022-09-23T04:45:06.116Z,6.90
2022-09-23T04:47:35.003Z,5.40
2022-09-23T04:50:04.055Z,5.40
2022-09-23T04:52:32.952Z,5.10
2022-09-23T04:55:01.905Z,5.80
2022-09-23T04:57:30.706Z,5.20
2022-09-23T05:00:00.151Z,4.90
2022-09-23T05:02:29.183Z,4.90
2022-09-23T05:04:58.791Z,4.60
2022-09-23T05:07:27.604Z,4.80
2022-09-23T05:09:56.634Z,4.40
2022-09-23T05:12:25.393Z,4.70
2022-09-23T05:14:54.266Z,4.50
2022-09-23T05:17:23.175Z,4.30
2022-09-23T05:19:52.086Z,4.10
2022-09-23T05:22:21.013Z,5.00
2022-09-23T05:24:49.823Z,4.00
2022-09-23T05:27:18.800Z,4.00
2022-09-23T05:29:48.299Z,4.80
2022-09-23T05:32:17.809Z,4.70
2022-09-23T05:34:46.606Z,4.90
2022-09-23T05:37:15.542Z,4.40
2022-09-23T05:39:44.483Z,4.00
2022-09-23T05:42:13.533Z,4.90
2022-09-23T05:44:42.495Z,4.60
2022-09-23T05:47:11.332Z,4.80
2022-09-23T05:49:58.509Z,4.60
2022-09-23T05:52:28.799Z,4.40
2022-09-23T05:54:57.612Z,4.60
2022-09-23T05:57:26.915Z,4.10
2022-09-23T05:59:55.633Z,4.50
2022-09-23T06:02:24.572Z,4.00
2022-09-23T06:04:53.658Z,3.60
2022-09-23T06:07:22.532Z,4.00
2022-09-23T06:09:54.455Z,4.20
2022-09-23T06:12:23.668Z,3.80
2022-09-23T06:14:53.298Z,3.40
2022-09-23T06:17:22.147Z,3.90
2022-09-23T06:19:51.017Z,3.40
2022-09-23T06:22:19.776Z,3.80
2022-09-23T06:24:48.602Z,3.60
2022-09-23T06:27:17.431Z,3.90
2022-09-23T06:29:46.241Z,3.60
2022-09-23T06:32:14.997Z,3.60
2022-09-23T06:34:51.624Z,3.10
2022-09-23T06:37:21.102Z,4.00
2022-09-23T06:39:51.313Z,3.40
2022-09-23T06:42:20.286Z,2.70
2022-09-23T06:44:49.172Z,2.70
2022-09-23T06:47:18.222Z,2.90
2022-09-23T06:49:47.037Z,3.80
2022-09-23T06:52:15.895Z,3.80
2022-09-23T06:54:44.692Z,3.50
2022-09-23T06:57:13.809Z,3.40
2022-09-23T06:59:42.770Z,4.40
2022-09-23T07:02:12.596Z,3.80
2022-09-23T07:04:41.672Z,3.60
2022-09-23T07:07:11.899Z,3.00
2022-09-23T07:09:41.023Z,3.00
2022-09-23T07:12:09.975Z,2.70
2022-09-23T07:14:38.858Z,3.80
2022-09-23T07:17:07.680Z,2.90
2022-09-23T07:19:36.536Z,2.80
2022-09-23T07:22:05.842Z,2.40
2022-09-23T07:24:34.808Z,3.10
2022-09-23T07:27:03.709Z,3.40
2022-09-23T07:29:44.607Z,2.90
2022-09-23T07:32:17.287Z,2.30
2022-09-23T07:34:47.583Z,3.00
2022-09-23T07:37:18.232Z,2.30
2022-09-23T07:39:47.159Z,3.20
2022-09-23T07:42:16.103Z,2.70
2022-09-23T07:44:48.246Z,3.10
2022-09-23T07:47:17.680Z,2.70
2022-09-23T07:49:46.541Z,3.10
2022-09-23T07:52:15.472Z,2.90
2022-09-23T07:54:48.052Z,2.80
2022-09-23T07:57:16.880Z,2.60
2022-09-23T07:59:45.841Z,3.10
2022-09-23T08:02:16.788Z,3.10
2022-09-23T08:04:46.660Z,2.90
2022-09-23T08:07:16.774Z,3.00
2022-09-23T08:09:46.072Z,3.30
2022-09-23T08:12:17.710Z,2.90
2022-09-23T08:14:46.686Z,3.60
2022-09-23T08:17:15.614Z,3.00
2022-09-23T08:19:44.731Z,3.20
2022-09-23T08:22:13.612Z,2.30
2022-09-23T08:24:42.419Z,2.60
2022-09-23T08:27:12.976Z,2.40
2022-09-23T08:29:41.868Z,2.90
2022-09-23T08:32:10.751Z,2.80
2022-09-23T08:34:40.371Z,2.60
2022-09-23T08:37:12.277Z,2.40
2022-09-23T08:39:41.131Z,2.40
2022-09-23T08:42:27.990Z,2.20
2022-09-23T08:45:03.058Z,2.50
2022-09-23T08:47:40.899Z,2.80
2022-09-23T08:50:34.347Z,2.50
2022-09-23T08:53:14.852Z,3.00
2022-09-23T08:55:53.825Z,2.50
2022-09-23T08:58:26.384Z,2.60
2022-09-23T09:01:33.247Z,2.50
2022-09-23T09:04:12.808Z,2.10
2022-09-23T09:06:53.633Z,2.90
2022-09-23T09:09:36.550Z,1.80
2022-09-23T09:12:45.603Z,2.80
2022-09-23T09:15:19.970Z,2.30
2022-09-23T09:18:10.416Z,2.30
2022-09-23T09:21:01.316Z,2.30
2022-09-23T09:23:48.753Z,2.30
2022-09-23T09:26:25.865Z,3.80
2022-09-23T09:29:35.396Z,3.30
2022-09-23T09:32:46.723Z,2.70
2022-09-23T09:35:27.769Z,3.30
2022-09-23T09:37:57.017Z,3.40
2022-09-23T09:40:25.976Z,2.80
2022-09-23T09:42:55.228Z,2.70
2022-09-23T09:45:29.257Z,4.20
2022-09-23T09:48:15.411Z,3.50
2022-09-23T09:50:52.676Z,2.00
2022-09-23T09:53:32.924Z,2.60
2022-09-23T09:56:10.362Z,2.30
2022-09-23T09:58:47.562Z,3.20
2022-09-23T10:01:29.227Z,3.10
2022-09-23T10:04:01.582Z,3.40
2022-09-23T10:06:36.213Z,3.20
2022-09-23T10:09:14.247Z,2.70
2022-09-23T10:11:44.791Z,4.10
2022-09-23T10:14:19.624Z,3.10
2022-09-23T10:17:06.312Z,2.40
2022-09-23T10:19:38.827Z,3.10
2022-09-23T10:22:24.695Z,2.40
2022-09-23T10:24:55.566Z,2.30
2022-09-23T10:27:31.937Z,2.30
2022-09-23T10:30:22.190Z,2.70
2022-09-23T10:32:55.303Z,3.00
2022-09-23T10:35:28.587Z,2.80
2022-09-23T10:38:00.135Z,2.00
2022-09-23T10:40:58.828Z,2.50
2022-09-23T10:43:57.934Z,2.00
2022-09-23T10:46:45.196Z,2.20
2022-09-23T10:49:39.156Z,2.30
2022-09-23T10:52:26.268Z,2.00
2022-09-23T10:55:12.202Z,2.90
2022-09-23T10:57:46.980Z,3.30
2022-09-23T11:00:25.346Z,3.50
2022-09-23T11:03:03.276Z,2.60
2022-09-23T11:05:36.294Z,3.60
2022-09-23T11:08:23.221Z,4.40
2022-09-23T11:11:12.050Z,3.80
2022-09-23T11:13:59.125Z,3.50
2022-09-23T11:16:54.505Z,3.30
2022-09-23T11:19:51.095Z,4.70
2022-09-23T11:22:38.388Z,3.30
2022-09-23T11:25:44.246Z,3.90
2022-09-23T11:28:45.808Z,3.30
2022-09-23T11:31:59.661Z,2.90
2022-09-23T11:35:16.944Z,2.90
2022-09-23T11:37:50.870Z,2.20
2022-09-23T11:40:23.261Z,2.90
2022-09-23T11:43:10.270Z,2.60
2022-09-23T11:45:50.268Z,2.50
2022-09-23T11:48:35.004Z,2.50
2022-09-23T11:51:13.883Z,2.70
2022-09-23T11:53:50.519Z,3.40
2022-09-23T11:56:34.984Z,3.80
2022-09-23T11:59:16.407Z,3.80
2022-09-23T12:02:14.738Z,3.40
2022-09-23T12:05:04.932Z,2.80
2022-09-23T12:07:57.066Z,8.80
2022-09-23T12:10:57.718Z,5.10
2022-09-23T12:14:01.696Z,4.20
2022-09-23T12:17:02.010Z,3.90
2022-09-23T12:19:52.626Z,7.00
2022-09-23T12:22:54.789Z,3.90
2022-09-23T12:25:35.367Z,3.10
2022-09-23T12:28:26.464Z,3.50
2022-09-23T12:30:59.350Z,3.20
2022-09-23T12:33:34.515Z,2.30
2022-09-23T12:36:13.275Z,2.80
2022-09-23T12:38:56.491Z,3.00
2022-09-23T12:41:39.225Z,3.00
2022-09-23T12:44:47.439Z,2.90
2022-09-23T12:47:25.468Z,4.20
2022-09-23T12:49:56.930Z,5.80
2022-09-23T12:52:32.646Z,6.50
2022-09-23T12:55:26.911Z,5.00
2022-09-23T12:57:55.804Z,4.60
2022-09-23T13:00:28.875Z,4.50
2022-09-23T13:03:19.647Z,3.60
2022-09-23T13:06:20.338Z,3.00
2022-09-23T13:08:50.514Z,3.20
2022-09-23T13:11:26.428Z,3.10
2022-09-23T13:14:02.542Z,3.50
2022-09-23T13:16:46.274Z,4.40
2022-09-23T13:19:34.179Z,4.20
2022-09-23T13:22:09.755Z,4.50
2022-09-23T13:24:41.669Z,3.60
2022-09-23T13:27:19.490Z,4.80
2022-09-23T13:30:02.639Z,4.40
2022-09-23T13:32:45.734Z,3.50
2022-09-23T13:35:29.471Z,3.70
2022-09-23T13:37:58.923Z,3.90
2022-09-23T13:40:30.152Z,3.80
2022-09-23T13:43:03.676Z,4.30
2022-09-23T13:45:38.128Z,2.80
2022-09-23T13:48:12.206Z,2.70
2022-09-23T13:50:48.015Z,3.10
2022-09-23T13:53:32.264Z,3.20
2022-09-23T13:56:28.833Z,2.90
2022-09-23T13:59:28.974Z,2.10
2022-09-23T14:02:12.876Z,2.00
2022-09-23T14:04:41.916Z,2.20
2022-09-23T14:07:14.711Z,2.60
2022-09-23T14:09:52.848Z,1.90
2022-09-23T14:12:24.927Z,2.60
2022-09-23T14:14:53.995Z,3.10
2022-09-23T14:17:23.944Z,2.90
2022-09-23T14:19:53.042Z,2.60
2022-09-23T14:22:28.044Z,2.70
2022-09-23T14:24:58.043Z,2.00
2022-09-23T14:27:36.880Z,2.10
2022-09-23T14:30:06.400Z,1.60
2022-09-23T14:32:35.482Z,1.70
2022-09-23T14:35:04.763Z,2.90
2022-09-23T14:37:57.922Z,2.40
2022-09-23T14:40:28.652Z,2.10
2022-09-23T14:43:00.431Z,3.70
2022-09-23T14:45:35.422Z,3.50
2022-09-23T14:48:23.089Z,2.90
2022-09-23T14:50:56.457Z,2.90
2022-09-23T14:53:46.746Z,2.70
2022-09-23T14:56:25.189Z,2.20
2022-09-23T14:59:00.281Z,2.50
2022-09-23T15:01:35.014Z,4.00
2022-09-23T15:04:15.658Z,3.40
2022-09-23T15:07:07.606Z,4.20
2022-09-23T15:09:40.132Z,5.10
2022-09-23T15:12:12.971Z,6.60
2022-09-23T15:14:50.802Z,6.00
2022-09-23T15:17:31.147Z,5.50
2022-09-23T15:20:07.133Z,3.90
2022-09-23T15:22:48.829Z,4.00
2022-09-23T15:25:36.447Z,4.80
2022-09-23T15:28:11.494Z,4.10
2022-09-23T15:30:40.629Z,3.80
2022-09-23T15:33:16.619Z,3.50
2022-09-23T15:35:49.220Z,2.90
2022-09-23T15:38:18.363Z,3.50
2022-09-23T15:40:49.222Z,3.30
2022-09-23T15:43:25.073Z,2.70
2022-09-23T15:46:22.690Z,2.40
2022-09-23T15:48:59.073Z,2.50
2022-09-23T15:51:28.887Z,3.20
2022-09-23T15:53:58.209Z,2.80
2022-09-23T15:56:27.625Z,3.60
2022-09-23T15:58:56.812Z,3.30
2022-09-23T16:01:34.031Z,3.30
2022-09-23T16:04:04.840Z,3.10
2022-09-23T16:06:36.585Z,3.20
2022-09-23T16:09:05.828Z,2.80
2022-09-23T16:11:35.742Z,3.00
2022-09-23T16:14:04.706Z,3.30
2022-09-23T16:16:34.115Z,2.80
2022-09-23T16:19:02.883Z,2.80
2022-09-23T16:21:31.790Z,3.30
2022-09-23T16:24:00.997Z,2.80
2022-09-23T16:26:33.263Z,3.20
2022-09-23T16:29:03.070Z,3.30
2022-09-23T16:31:32.623Z,3.90
2022-09-23T16:34:02.724Z,3.80
2022-09-23T16:36:38.755Z,3.30
2022-09-23T16:39:11.289Z,3.70
2022-09-23T16:41:43.896Z,3.80
2022-09-23T16:44:12.917Z,4.30
2022-09-23T16:46:43.367Z,3.80
2022-09-23T16:49:12.622Z,4.20
2022-09-23T16:51:41.925Z,3.80
2022-09-23T16:54:13.403Z,3.60
2022-09-23T16:56:47.094Z,3.60
2022-09-23T16:59:17.498Z,3.90
2022-09-23T17:02:05.245Z,3.60
2022-09-23T17:04:34.306Z,4.10
2022-09-23T17:07:03.857Z,4.50
2022-09-23T17:09:33.056Z,4.00
2022-09-23T17:12:18.235Z,3.80
2022-09-23T17:14:47.632Z,3.40
2022-09-23T17:17:16.734Z,3.70
2022-09-23T17:19:45.831Z,3.50
2022-09-23T17:22:15.700Z,3.60
2022-09-23T17:24:45.861Z,3.70
2022-09-23T17:27:17.723Z,3.40
2022-09-23T17:29:46.686Z,3.40
2022-09-23T17:32:15.598Z,3.40
2022-09-23T17:34:45.374Z,4.20
2022-09-23T17:37:15.003Z,3.80
2022-09-23T17:39:44.833Z,3.80
2022-09-23T17:42:15.852Z,4.20
2022-09-23T17:44:44.936Z,5.00
2022-09-23T17:47:14.924Z,3.70
2022-09-23T17:49:45.722Z,3.60
2022-09-23T17:52:15.058Z,3.60
2022-09-23T17:54:45.685Z,4.20
2022-09-23T17:57:15.303Z,3.70
2022-09-23T17:59:44.950Z,3.30
2022-09-23T18:02:15.843Z,3.90
2022-09-23T18:04:45.216Z,3.90
2022-09-23T18:07:14.155Z,3.70
2022-09-23T18:09:43.661Z,3.40
2022-09-23T18:12:12.966Z,3.60
2022-09-23T18:14:42.735Z,3.90
2022-09-23T18:17:11.934Z,3.90
2022-09-23T18:19:41.169Z,3.90
2022-09-23T18:22:10.691Z,3.80
2022-09-23T18:24:41.786Z,4.00
2022-09-23T18:27:10.973Z,4.00
2022-09-23T18:29:40.068Z,4.10
2022-09-23T18:32:13.883Z,4.30
2022-09-23T18:34:44.944Z,4.40
2022-09-23T18:37:16.153Z,4.00
2022-09-23T18:39:46.085Z,4.30
2022-09-23T18:42:15.481Z,3.90
2022-09-23T18:44:44.681Z,3.90
2022-09-23T18:47:33.848Z,5.70
2022-09-23T18:50:21.897Z,4.00
2022-09-23T18:52:51.190Z,3.60
2022-09-23T18:55:20.184Z,3.70
2022-09-23T18:57:49.415Z,3.30
2022-09-23T19:00:19.812Z,3.40
2022-09-23T19:02:49.213Z,3.40
2022-09-23T19:05:19.465Z,3.20
2022-09-23T19:07:48.529Z,3.20
2022-09-23T19:10:19.577Z,3.30
2022-09-23T19:12:49.693Z,3.20
2022-09-23T19:15:18.853Z,3.40
2022-09-23T19:17:48.200Z,2.70
2022-09-23T19:20:17.808Z,2.90
2022-09-23T19:22:48.139Z,3.00
2022-09-23T19:25:17.881Z,3.30
2022-09-23T19:27:47.245Z,3.10
2022-09-23T19:30:16.656Z,3.40
2022-09-23T19:32:46.259Z,3.20
2022-09-23T19:35:16.436Z,3.30
2022-09-23T19:37:49.740Z,3.20
2022-09-23T19:40:19.129Z,3.10
2022-09-23T19:42:48.475Z,3.10
2022-09-23T19:45:17.772Z,3.00
2022-09-23T19:47:46.771Z,2.80
2022-09-23T19:50:16.337Z,2.80
2022-09-23T19:52:45.573Z,3.00
2022-09-23T19:55:14.881Z,2.90
2022-09-23T19:57:44.087Z,3.00
2022-09-23T20:00:15.728Z,2.60
2022-09-23T20:02:45.095Z,2.80
2022-09-23T20:05:18.415Z,3.20
2022-09-23T20:07:49.366Z,3.40
2022-09-23T20:10:18.910Z,3.00
2022-09-23T20:12:48.066Z,3.40
2022-09-23T20:15:17.781Z,2.80
2022-09-23T20:17:47.019Z,2.90
2022-09-23T20:20:16.495Z,3.00
2022-09-23T20:22:46.331Z,3.10
2022-09-23T20:25:15.802Z,3.40
2022-09-23T20:27:51.760Z,2.80
2022-09-23T20:30:21.575Z,3.10
2022-09-23T20:32:50.683Z,3.10
2022-09-23T20:35:20.077Z,2.90
2022-09-23T20:37:49.619Z,3.20
2022-09-23T20:40:18.760Z,3.20
2022-09-23T20:42:49.349Z,3.10
2022-09-23T20:45:18.812Z,3.40
2022-09-23T20:47:48.148Z,2.80
2022-09-23T20:50:17.664Z,2.80
2022-09-23T20:52:46.921Z,2.90
2022-09-23T20:55:15.915Z,3.20
2022-09-23T20:57:45.643Z,2.90
2022-09-23T21:00:15.436Z,3.30
2022-09-23T21:02:45.459Z,3.60
2022-09-23T21:05:15.831Z,3.20
2022-09-23T21:07:47.336Z,3.30
2022-09-23T21:10:16.757Z,3.90
2022-09-23T21:12:50.725Z,3.50
2022-09-23T21:15:20.292Z,3.50
2022-09-23T21:17:49.463Z,3.70
2022-09-23T21:20:18.651Z,3.60
2022-09-23T21:22:50.715Z,3.60
2022-09-23T21:25:28.639Z,3.70
2022-09-23T21:28:02.428Z,3.60
2022-09-23T21:30:31.668Z,3.50
2022-09-23T21:33:01.642Z,3.40
2022-09-23T21:35:31.765Z,3.70
2022-09-23T21:38:01.087Z,3.40
2022-09-23T21:40:49.512Z,3.50
2022-09-23T21:43:19.605Z,2.90
2022-09-23T21:45:48.531Z,3.00
2022-09-23T21:48:17.428Z,2.80
2022-09-23T21:50:55.391Z,2.90
2022-09-23T21:53:24.827Z,2.60
2022-09-23T21:55:54.329Z,3.40
2022-09-23T21:58:23.528Z,3.40
2022-09-23T22:00:52.583Z,2.70
2022-09-23T22:03:22.036Z,3.00
2022-09-23T22:06:22.153Z,3.10
2022-09-23T22:08:54.558Z,2.80
2022-09-23T22:11:43.730Z,3.20
2022-09-23T22:14:14.363Z,3.00
2022-09-23T22:16:43.967Z,2.70
2022-09-23T22:19:15.956Z,2.80
2022-09-23T22:21:46.178Z,3.30
2022-09-23T22:24:15.724Z,2.90
2022-09-23T22:26:45.777Z,3.20
2022-09-23T22:29:34.913Z,2.90
2022-09-23T22:32:24.435Z,3.20
2022-09-23T22:34:53.747Z,3.10
2022-09-23T22:37:34.680Z,3.40
2022-09-23T22:40:09.772Z,3.70
2022-09-23T22:42:39.842Z,3.30
2022-09-23T22:45:11.828Z,3.10
2022-09-23T22:47:45.841Z,3.30
2022-09-23T22:50:15.556Z,3.10
2022-09-23T22:52:45.930Z,3.00
2022-09-23T22:55:14.921Z,3.20
2022-09-23T22:57:44.222Z,3.00
2022-09-23T23:00:14.086Z,2.90
2022-09-23T23:02:43.436Z,2.90
2022-09-23T23:05:15.097Z,2.40
2022-09-23T23:07:44.307Z,3.00
2022-09-23T23:10:14.646Z,2.80
2022-09-23T23:12:44.454Z,3.00
2022-09-23T23:15:13.637Z,3.10
2022-09-23T23:17:44.004Z,2.60
2022-09-23T23:20:13.874Z,2.90
2022-09-23T23:22:43.088Z,2.90
2022-09-23T23:25:12.479Z,3.10
2022-09-23T23:27:41.674Z,2.80
2022-09-23T23:30:11.893Z,3.10
2022-09-23T23:32:41.090Z,3.40
2022-09-23T23:35:11.126Z,3.10
2022-09-23T23:37:41.357Z,3.80
2022-09-23T23:40:11.211Z,3.40
2022-09-23T23:42:40.445Z,3.80
2022-09-23T23:45:09.953Z,4.00
2022-09-23T23:47:39.257Z,3.70
2022-09-23T23:50:10.293Z,3.70
2022-09-23T23:52:39.929Z,3.80
2022-09-23T23:55:10.023Z,3.60
2022-09-23T23:57:39.156Z,3.60
